KOLY

Details ICAO KOLY
Name OLNEY NOBLE
Region United States
Timezone America/Chicago (UTC-5.0)
Plans Departing 3
Arriving 0
Stats Elevation 482 ft / 147 m (AMSL)
Location 38.721751° -88.176352°
Runways 2
Magnetic Variation 3.101° W
Sunrise 2018-05-27 10:33:32 UTC / 2018-05-27 05:33:32 Local
Sunset 2018-05-28 01:09:08 UTC / 2018-05-27 20:09:08 Local
Advertisement - Login to hide

Runways

ID Width Length Bearing (true) Bearing (mag) Surface Threshold Offset Overrun Length
03 60 ft / 18 m 3,600 ft / 1,097 m 35.76° 38.86° Asphalt 0 ft / 0 m 0 ft / 0 m
11 75 ft / 23 m 4,094 ft / 1,248 m 107.24° 110.34° Asphalt 0 ft / 0 m 0 ft / 0 m
21 60 ft / 18 m 3,600 ft / 1,097 m 215.77° 218.87° Asphalt 0 ft / 0 m 0 ft / 0 m
29 75 ft / 23 m 4,094 ft / 1,248 m 287.25° 290.35° Asphalt 0 ft / 0 m 0 ft / 0 m

Map

Weather


0- 5 10 15 20 25 30 35+ Temperature / ° C

Clouds and Precipitation
Forecast for 2018-05-27 12:00 UTC. Updated 22 minutes ago

Ground ~20,000 ft ~40,000 ft Winds

METAR

KOLY 271135Z AUTO 00000KT 7SM CLR 21/20 A2989 RMK AO2 T02130201

TAF

Not found

Frequencies

Recorded 119.27 MHz AWOS 3
Unicom 123.00 MHz CTAF/UNICOM
Warning: Do not use this data for real-world aviation or navigation. No guarantee of current accuracy is given.